Time;durP1;ratioP1;P1;durP2;ratioP2;P2;SDS_P1;SDS_P2;PMS_P1;PMS_P2;Temp;Humidity;BMP_temperature;BMP_pressure;BME280_temperature;BME280_humidity;BME280_pressure;Samples;Min_cycle;Max_cycle;Signal;HPM_P1;HPM_P2
2023/12/05 00:00:09;;;;;;;27.50;16.55;;;22.70;36.60;;;;;;6145899;28;83233;-60
2023/12/05 00:03:18;;;;;;;25.90;15.98;;;22.70;36.60;;;;;;6148582;28;83344;-62
2023/12/05 00:06:19;;;;;;;28.67;15.93;;;22.80;36.70;;;;;;6151572;28;82711;-62
2023/12/05 00:09:19;;;;;;;26.88;16.20;;;22.70;36.70;;;;;;6151737;28;84592;-62
2023/12/05 00:12:20;;;;;;;26.75;15.80;;;22.70;36.50;;;;;;6150316;28;83017;-63
2023/12/05 00:15:20;;;;;;;26.13;16.25;;;22.80;36.60;;;;;;6147931;28;83097;-64
2023/12/05 00:18:21;;;;;;;24.00;14.80;;;22.80;36.70;;;;;;6151386;28;83646;-63
2023/12/05 00:21:21;;;;;;;26.40;15.93;;;22.80;36.80;;;;;;6151010;28;83053;-62
2023/12/05 00:24:22;;;;;;;29.08;15.40;;;22.80;36.60;;;;;;6150582;28;85469;-63
2023/12/05 00:27:22;;;;;;;25.63;16.35;;;22.80;36.30;;;;;;6151232;28;83542;-68
2023/12/05 00:30:23;;;;;;;29.27;16.80;;;22.70;36.30;;;;;;6146077;28;83734;-68
2023/12/05 00:33:24;;;;;;;29.10;17.05;;;22.80;36.10;;;;;;6150443;28;83806;-68
2023/12/05 00:36:24;;;;;;;28.50;17.20;;;22.80;36.10;;;;;;6150514;28;85067;-67
2023/12/05 00:39:25;;;;;;;25.55;15.40;;;22.80;36.10;;;;;;6149609;28;83055;-70
2023/12/05 00:42:25;;;;;;;29.38;16.65;;;22.80;36.10;;;;;;6150889;28;83082;-67
2023/12/05 00:45:26;;;;;;;28.73;17.75;;;22.80;36.10;;;;;;6150071;28;85543;-64
2023/12/05 00:48:26;;;;;;;30.17;17.35;;;22.80;36.20;;;;;;6150261;28;83226;-62
2023/12/05 00:51:27;;;;;;;28.63;16.13;;;22.80;36.20;;;;;;6141725;28;83175;-65
2023/12/05 00:54:27;;;;;;;28.95;17.08;;;22.80;36.50;;;;;;6150662;28;83828;-65
2023/12/05 00:57:28;;;;;;;27.13;17.02;;;22.70;36.20;;;;;;6150069;28;83910;-64
2023/12/05 01:00:28;;;;;;;31.65;17.05;;;22.70;36.30;;;;;;6149071;28;83394;-65
2023/12/05 01:03:29;;;;;;;27.98;16.20;;;22.70;36.40;;;;;;6139711;28;83118;-64
2023/12/05 01:06:29;;;;;;;29.48;17.90;;;22.70;36.40;;;;;;6150512;28;83341;-66
2023/12/05 01:09:30;;;;;;;25.60;15.82;;;22.60;36.30;;;;;;6148969;28;84536;-65
2023/12/05 01:12:30;;;;;;;29.25;16.90;;;22.60;36.40;;;;;;6148868;28;84624;-64
2023/12/05 01:15:33;;;;;;;26.60;15.57;;;22.60;36.30;;;;;;6150413;28;83397;-63
2023/12/05 01:18:33;;;;;;;27.23;15.88;;;22.60;36.40;;;;;;6150131;28;83092;-64
2023/12/05 01:21:34;;;;;;;24.20;14.43;;;22.60;36.30;;;;;;6150084;28;83220;-63
2023/12/05 01:24:34;;;;;;;29.73;16.23;;;22.60;36.40;;;;;;6150451;28;82728;-64
2023/12/05 01:27:35;;;;;;;24.77;14.90;;;22.60;36.40;;;;;;6145836;28;86831;-64
2023/12/05 01:30:36;;;;;;;26.85;15.68;;;22.60;36.30;;;;;;6140163;28;83821;-62
2023/12/05 01:33:36;;;;;;;25.33;14.43;;;22.70;36.20;;;;;;6149319;28;83418;-62
2023/12/05 01:36:37;;;;;;;25.02;14.85;;;22.70;36.50;;;;;;6150168;28;82946;-62
2023/12/05 01:39:37;;;;;;;26.05;16.52;;;22.70;36.50;;;;;;6147172;28;86502;-62
2023/12/05 01:42:38;;;;;;;28.77;15.15;;;22.70;36.40;;;;;;6149020;28;84257;-61
2023/12/05 01:45:38;;;;;;;26.48;15.18;;;22.70;36.50;;;;;;6149604;28;83150;-62
2023/12/05 01:48:39;;;;;;;25.70;15.48;;;22.70;36.50;;;;;;6136539;28;84281;-61
2023/12/05 01:51:39;;;;;;;23.48;14.18;;;22.70;36.40;;;;;;6143403;28;83387;-61
2023/12/05 01:54:40;;;;;;;26.38;16.10;;;22.70;36.50;;;;;;6114901;28;89225;-64
2023/12/05 01:57:41;;;;;;;26.77;16.27;;;22.70;36.30;;;;;;6157267;28;83150;-61
2023/12/05 02:00:42;;;;;;;26.25;16.50;;;22.60;36.10;;;;;;6170460;28;83133;-62
2023/12/05 02:03:42;;;;;;;25.75;15.07;;;22.70;36.10;;;;;;6170276;28;84386;-63
2023/12/05 02:06:43;;;;;;;24.33;14.80;;;22.70;36.70;;;;;;6172880;28;83851;-64
2023/12/05 02:09:44;;;;;;;26.75;14.95;;;22.70;35.90;;;;;;6172902;28;83679;-64
2023/12/05 02:12:44;;;;;;;26.25;15.75;;;22.70;36.00;;;;;;6172825;28;85233;-64
2023/12/05 02:15:45;;;;;;;28.98;16.70;;;22.70;35.90;;;;;;6173293;28;83341;-64
2023/12/05 02:18:46;;;;;;;25.13;15.23;;;22.70;35.90;;;;;;6173174;28;83081;-64
2023/12/05 02:21:46;;;;;;;23.13;14.77;;;22.70;35.80;;;;;;6173204;28;84107;-63
2023/12/05 02:24:47;;;;;;;24.23;14.73;;;22.60;35.90;;;;;;6173000;28;85662;-63
2023/12/05 02:27:47;;;;;;;22.10;13.48;;;22.70;35.90;;;;;;6168424;28;83079;-63
2023/12/05 02:30:48;;;;;;;23.83;14.43;;;22.70;35.90;;;;;;6162710;28;83340;-61
2023/12/05 02:33:49;;;;;;;26.35;15.63;;;22.70;36.00;;;;;;6163476;28;83359;-62
2023/12/05 02:36:50;;;;;;;22.13;13.98;;;22.70;35.90;;;;;;6172690;28;83137;-62
2023/12/05 02:39:51;;;;;;;22.65;13.65;;;22.70;36.00;;;;;;6172918;28;83122;-62
2023/12/05 02:42:51;;;;;;;25.63;15.15;;;22.70;36.30;;;;;;6171892;28;83620;-61
2023/12/05 02:45:51;;;;;;;22.02;13.45;;;22.70;36.20;;;;;;6169572;28;83426;-63
2023/12/05 02:48:52;;;;;;;20.55;13.48;;;22.70;36.30;;;;;;6171919;28;83948;-64
2023/12/05 02:51:53;;;;;;;24.40;13.25;;;22.60;36.30;;;;;;6172345;28;83459;-64
2023/12/05 02:54:53;;;;;;;21.92;13.45;;;22.70;36.30;;;;;;6169934;28;82843;-69
2023/12/05 02:57:54;;;;;;;20.35;12.40;;;22.60;36.30;;;;;;6174608;28;83734;-68
2023/12/05 03:00:54;;;;;;;23.40;12.98;;;22.70;36.30;;;;;;6174872;28;82658;-67
2023/12/05 03:03:55;;;;;;;18.40;11.68;;;22.70;36.70;;;;;;6162762;28;85217;-68
2023/12/05 03:06:55;;;;;;;18.35;11.20;;;22.60;37.00;;;;;;6172955;28;83377;-68
2023/12/05 03:09:55;;;;;;;17.45;11.13;;;22.60;36.90;;;;;;6164457;28;85315;-67
2023/12/05 03:12:56;;;;;;;17.55;10.88;;;22.60;37.20;;;;;;6173432;28;82986;-64
2023/12/05 03:15:56;;;;;;;20.20;11.63;;;22.60;37.20;;;;;;6171060;28;86821;-63
2023/12/05 03:18:57;;;;;;;20.58;11.38;;;22.60;37.00;;;;;;6172129;28;83455;-64
2023/12/05 03:21:58;;;;;;;16.10;10.93;;;22.60;37.20;;;;;;6171943;28;83083;-63
2023/12/05 03:24:58;;;;;;;16.65;10.85;;;22.60;37.10;;;;;;6163482;28;84424;-64
2023/12/05 03:27:59;;;;;;;21.98;12.90;;;22.60;36.90;;;;;;6171679;28;83608;-63
2023/12/05 03:30:59;;;;;;;20.60;12.95;;;22.60;36.50;;;;;;6161055;28;83341;-64
2023/12/05 03:33:59;;;;;;;17.00;10.82;;;22.50;36.60;;;;;;6169611;28;83190;-64
2023/12/05 03:37:00;;;;;;;17.42;11.38;;;22.60;36.70;;;;;;6176193;28;89586;-64
2023/12/05 03:40:00;;;;;;;18.05;10.68;;;22.60;36.70;;;;;;6165765;28;83121;-64
2023/12/05 03:43:01;;;;;;;17.25;10.23;;;22.50;36.80;;;;;;6173118;28;83639;-64
2023/12/05 03:46:01;;;;;;;17.85;11.10;;;22.50;36.80;;;;;;6176375;28;87824;-64
2023/12/05 03:49:02;;;;;;;16.70;10.77;;;22.50;36.60;;;;;;6174178;28;83537;-64
2023/12/05 03:52:02;;;;;;;18.27;10.77;;;22.50;36.80;;;;;;6173413;28;89025;-64
2023/12/05 03:55:03;;;;;;;18.50;11.88;;;22.50;37.30;;;;;;6171836;28;83084;-65
2023/12/05 03:58:03;;;;;;;17.17;10.50;;;22.60;36.40;;;;;;6176252;28;83218;-64
2023/12/05 04:01:04;;;;;;;17.17;11.00;;;22.60;36.60;;;;;;6173385;28;88497;-63
2023/12/05 04:04:04;;;;;;;19.20;11.35;;;22.60;36.40;;;;;;6172822;28;83060;-63
2023/12/05 04:07:05;;;;;;;18.85;12.13;;;22.60;36.50;;;;;;6158715;28;89154;-64
2023/12/05 04:10:05;;;;;;;17.67;11.20;;;22.60;36.20;;;;;;6148112;28;84229;-64
2023/12/05 04:13:06;;;;;;;18.20;11.02;;;22.60;36.20;;;;;;6149658;28;83171;-63
2023/12/05 04:16:06;;;;;;;18.52;11.65;;;22.50;36.10;;;;;;6150842;28;83272;-65
2023/12/05 04:19:07;;;;;;;16.92;10.80;;;22.60;36.30;;;;;;6151450;28;83285;-61
2023/12/05 04:22:07;;;;;;;16.95;10.82;;;22.60;36.70;;;;;;6150460;28;83672;-62
2023/12/05 04:25:08;;;;;;;17.05;10.77;;;22.60;36.00;;;;;;6142059;28;83970;-63
2023/12/05 04:28:09;;;;;;;16.52;10.65;;;22.60;35.20;;;;;;6145523;28;82988;-63
2023/12/05 04:31:09;;;;;;;17.52;11.35;;;22.70;34.90;;;;;;6138806;28;83368;-63
2023/12/05 04:34:10;;;;;;;18.10;11.30;;;22.70;34.70;;;;;;6150015;28;83243;-63
2023/12/05 04:37:11;;;;;;;17.42;10.73;;;22.80;34.60;;;;;;6145052;28;83841;-61
2023/12/05 04:40:11;;;;;;;15.77;10.50;;;22.80;34.40;;;;;;6141098;28;84019;-60
2023/12/05 04:43:12;;;;;;;18.20;11.05;;;22.90;34.60;;;;;;6149340;28;82854;-71
2023/12/05 04:46:12;;;;;;;17.08;11.10;;;22.90;34.30;;;;;;6148476;28;83424;-70
2023/12/05 04:49:13;;;;;;;16.83;10.82;;;22.90;34.50;;;;;;6150986;28;83425;-73
2023/12/05 04:52:13;;;;;;;17.40;10.95;;;23.00;34.20;;;;;;6137695;28;83711;-69
2023/12/05 04:55:14;;;;;;;16.73;10.25;;;23.00;34.40;;;;;;6144686;28;84266;-69
2023/12/05 04:58:14;;;;;;;17.05;10.40;;;23.00;34.50;;;;;;6149867;28;83818;-63
2023/12/05 05:01:15;;;;;;;17.92;10.18;;;23.10;35.10;;;;;;6148999;28;82999;-58
2023/12/05 05:04:15;;;;;;;16.15;10.25;;;23.10;35.30;;;;;;6146485;28;83109;-59
2023/12/05 05:07:16;;;;;;;16.05;10.80;;;23.20;35.70;;;;;;6146854;28;83065;-57
2023/12/05 05:10:16;;;;;;;15.25;9.52;;;23.20;36.00;;;;;;6146949;28;85532;-59
2023/12/05 05:13:17;;;;;;;14.20;9.75;;;23.20;36.00;;;;;;6152027;28;83711;-57
2023/12/05 05:16:17;;;;;;;15.60;9.52;;;23.20;36.00;;;;;;6152455;28;80482;-57
2023/12/05 05:19:18;;;;;;;16.90;10.23;;;23.30;36.30;;;;;;6151715;28;80641;-59
2023/12/05 05:22:18;;;;;;;23.77;10.32;;;23.30;36.50;;;;;;6129663;28;83830;-60
2023/12/05 05:25:19;;;;;;;14.95;9.18;;;23.30;36.10;;;;;;6152268;28;83809;-64
2023/12/05 05:28:19;;;;;;;15.80;10.73;;;23.30;36.60;;;;;;6176674;28;81750;-67
2023/12/05 05:31:20;;;;;;;19.95;9.75;;;23.30;36.10;;;;;;6142853;28;83891;-66
2023/12/05 05:34:20;;;;;;;15.65;9.60;;;23.30;36.30;;;;;;6144777;28;84493;-64
2023/12/05 05:37:21;;;;;;;17.23;10.77;;;23.30;36.20;;;;;;6148331;28;80774;-64
2023/12/05 05:40:22;;;;;;;14.52;9.43;;;23.30;36.30;;;;;;6146019;28;83212;-59
2023/12/05 05:43:22;;;;;;;20.58;10.80;;;23.30;36.30;;;;;;6151144;28;82835;-58
2023/12/05 05:46:22;;;;;;;15.05;10.60;;;23.20;36.30;;;;;;6148206;28;83405;-59
2023/12/05 05:49:23;;;;;;;16.63;10.77;;;23.20;36.30;;;;;;6148454;28;83759;-60
2023/12/05 05:52:23;;;;;;;15.90;10.48;;;23.20;36.40;;;;;;6148786;28;83460;-59
2023/12/05 05:55:24;;;;;;;18.85;10.93;;;23.10;36.20;;;;;;6146119;28;83228;-59
2023/12/05 05:58:25;;;;;;;17.80;10.77;;;23.10;36.10;;;;;;6145931;28;83142;-65
2023/12/05 06:01:25;;;;;;;15.40;10.82;;;23.10;36.10;;;;;;6147126;28;83768;-64
2023/12/05 06:04:26;;;;;;;19.92;12.02;;;23.10;36.00;;;;;;6139774;28;83115;-65
2023/12/05 06:07:26;;;;;;;20.40;10.43;;;23.10;36.00;;;;;;6132401;28;84392;-64
2023/12/05 06:10:27;;;;;;;19.98;11.88;;;23.00;35.80;;;;;;6142098;28;82963;-65
2023/12/05 06:13:27;;;;;;;19.33;11.32;;;23.00;35.80;;;;;;6162251;28;82846;-64
2023/12/05 06:16:28;;;;;;;15.73;10.48;;;23.00;35.60;;;;;;6156347;28;83509;-66
2023/12/05 06:19:28;;;;;;;18.60;12.43;;;23.00;35.60;;;;;;6148269;28;83203;-66
2023/12/05 06:22:29;;;;;;;18.60;12.27;;;23.00;35.60;;;;;;6136358;28;86344;-65
2023/12/05 06:25:29;;;;;;;22.73;12.13;;;22.90;35.60;;;;;;6148789;28;83033;-64
2023/12/05 06:28:30;;;;;;;17.95;12.02;;;22.90;35.50;;;;;;6148003;28;83718;-64
2023/12/05 06:31:30;;;;;;;17.35;11.25;;;22.90;35.50;;;;;;6136814;28;83943;-65
2023/12/05 06:34:31;;;;;;;20.65;12.35;;;22.80;35.40;;;;;;6147068;28;83673;-59
2023/12/05 06:37:31;;;;;;;19.95;12.10;;;22.80;35.00;;;;;;6127028;28;83438;-58
2023/12/05 06:40:33;;;;;;;17.88;11.65;;;22.80;35.00;;;;;;6156395;28;82811;-59
2023/12/05 06:43:33;;;;;;;18.27;11.57;;;22.80;34.70;;;;;;6155081;28;83155;-60
2023/12/05 06:46:34;;;;;;;19.27;12.13;;;22.80;34.60;;;;;;6148545;28;82962;-59
2023/12/05 06:49:34;;;;;;;21.48;12.82;;;22.70;34.50;;;;;;6147280;28;83040;-59
2023/12/05 06:52:35;;;;;;;18.48;12.82;;;22.70;34.70;;;;;;6148115;28;89336;-64
2023/12/05 06:55:35;;;;;;;21.25;13.05;;;22.70;34.40;;;;;;6147759;28;84196;-64
2023/12/05 06:58:36;;;;;;;21.15;11.80;;;22.70;34.50;;;;;;6148428;28;83283;-64
2023/12/05 07:01:36;;;;;;;19.20;12.68;;;22.60;34.60;;;;;;6147090;28;83214;-64
2023/12/05 07:04:37;;;;;;;20.98;13.18;;;22.60;34.30;;;;;;6133075;28;83107;-63
2023/12/05 07:07:37;;;;;;;20.08;13.27;;;22.50;34.40;;;;;;6148284;28;83424;-63
2023/12/05 07:10:38;;;;;;;18.08;12.05;;;22.50;34.20;;;;;;6146540;28;83312;-60
2023/12/05 07:13:38;;;;;;;21.23;11.77;;;22.50;34.40;;;;;;6147920;28;84283;-59
2023/12/05 07:16:39;;;;;;;17.23;11.77;;;22.50;34.20;;;;;;6147228;28;83375;-60
2023/12/05 07:19:39;;;;;;;19.40;12.57;;;22.50;34.00;;;;;;6147200;28;83151;-60
2023/12/05 07:22:40;;;;;;;20.00;11.85;;;22.40;34.00;;;;;;6147308;28;83113;-59
2023/12/05 07:25:40;;;;;;;18.85;12.13;;;22.40;33.80;;;;;;6136732;28;83309;-60
2023/12/05 07:28:41;;;;;;;18.38;11.65;;;22.40;33.90;;;;;;6147733;28;83349;-61
2023/12/05 07:31:42;;;;;;;19.10;11.93;;;22.40;33.80;;;;;;6147006;28;83061;-60
2023/12/05 07:34:43;;;;;;;20.70;12.50;;;22.50;33.90;;;;;;6146632;28;85778;-59
2023/12/05 07:37:43;;;;;;;19.85;11.95;;;22.50;33.90;;;;;;6147681;28;82831;-59
2023/12/05 07:40:44;;;;;;;16.13;11.07;;;22.60;33.90;;;;;;6147361;28;84254;-60
2023/12/05 07:43:44;;;;;;;19.10;10.98;;;22.60;34.10;;;;;;6147621;28;83406;-60
2023/12/05 07:46:45;;;;;;;17.30;11.35;;;22.60;34.10;;;;;;6147253;28;83308;-63
2023/12/05 07:49:45;;;;;;;20.63;11.57;;;22.60;34.00;;;;;;6143920;28;83150;-63
2023/12/05 07:52:46;;;;;;;18.35;11.90;;;22.70;34.00;;;;;;6134907;28;83158;-63
2023/12/05 07:55:46;;;;;;;17.45;10.07;;;22.70;33.90;;;;;;6147392;28;83118;-65
2023/12/05 07:58:47;;;;;;;16.92;11.48;;;22.70;34.00;;;;;;6143551;28;83298;-64
2023/12/05 08:01:47;;;;;;;20.60;12.45;;;22.80;33.90;;;;;;6144001;28;83176;-64
2023/12/05 08:04:48;;;;;;;22.77;13.10;;;22.80;33.80;;;;;;6136684;28;83318;-63
2023/12/05 08:07:48;;;;;;;20.05;12.15;;;22.80;33.70;;;;;;6147949;28;83541;-63
2023/12/05 08:10:49;;;;;;;20.25;12.98;;;22.90;33.70;;;;;;6146471;28;86909;-63
2023/12/05 08:13:49;;;;;;;17.65;11.57;;;22.90;33.80;;;;;;6147138;28;83289;-62
2023/12/05 08:16:50;;;;;;;19.40;12.13;;;22.90;34.40;;;;;;6146419;28;84729;-64
2023/12/05 08:19:50;;;;;;;18.88;12.70;;;22.90;33.70;;;;;;6146327;28;82948;-64
2023/12/05 08:22:51;;;;;;;17.02;12.35;;;23.00;33.70;;;;;;6148095;28;83364;-63
2023/12/05 08:25:51;;;;;;;18.90;12.23;;;23.00;33.70;;;;;;6150903;28;83054;-59
2023/12/05 08:28:52;;;;;;;20.92;14.02;;;23.10;34.10;;;;;;6151246;28;83225;-60
2023/12/05 08:31:52;;;;;;;22.75;13.60;;;23.10;33.80;;;;;;6130367;28;83050;-58
2023/12/05 08:34:53;;;;;;;16.80;11.27;;;23.20;34.10;;;;;;6149277;28;82980;-58
2023/12/05 08:37:53;;;;;;;22.25;13.18;;;23.20;33.70;;;;;;6150634;28;83093;-59
2023/12/05 08:40:54;;;;;;;19.55;12.13;;;23.30;33.40;;;;;;6150011;28;84347;-60
2023/12/05 08:43:54;;;;;;;20.52;11.63;;;23.30;33.30;;;;;;6150175;28;84334;-58
2023/12/05 08:46:55;;;;;;;17.83;11.25;;;23.40;33.10;;;;;;6144035;28;83084;-59
2023/12/05 08:49:56;;;;;;;22.77;11.85;;;23.50;32.70;;;;;;6150342;28;83264;-59
2023/12/05 08:52:56;;;;;;;17.58;11.45;;;23.60;32.60;;;;;;6138732;28;83160;-58
2023/12/05 08:55:57;;;;;;;19.58;12.57;;;23.70;32.60;;;;;;6150066;28;84954;-59
2023/12/05 08:58:57;;;;;;;17.35;12.45;;;23.80;32.50;;;;;;6171041;28;83429;-59
2023/12/05 09:01:58;;;;;;;19.63;12.38;;;23.90;32.40;;;;;;6145286;28;83197;-62
2023/12/05 09:05:00;;;;;;;16.15;11.65;;;24.00;32.20;;;;;;6142129;28;83293;-61
2023/12/05 09:08:00;;;;;;;19.80;12.73;;;24.00;32.20;;;;;;6150231;28;83842;-59
2023/12/05 09:11:01;;;;;;;18.08;11.27;;;24.10;32.30;;;;;;6151147;28;83169;-61
2023/12/05 09:14:02;;;;;;;19.67;12.27;;;24.10;32.20;;;;;;6148861;28;82955;-61
2023/12/05 09:17:03;;;;;;;18.70;12.05;;;24.20;32.30;;;;;;6147596;28;84412;-61
2023/12/05 09:20:04;;;;;;;18.67;12.68;;;24.20;32.30;;;;;;6145300;28;83525;-63
2023/12/05 09:23:04;;;;;;;20.42;12.85;;;24.30;32.20;;;;;;6150067;28;84014;-62
2023/12/05 09:26:05;;;;;;;21.05;12.20;;;24.30;32.20;;;;;;6148693;28;83838;-64
2023/12/05 09:29:05;;;;;;;18.08;11.68;;;24.40;32.20;;;;;;6148901;28;83523;-63
2023/12/05 09:32:06;;;;;;;15.68;11.10;;;24.40;32.00;;;;;;6134928;28;83495;-63
2023/12/05 09:35:06;;;;;;;17.67;12.35;;;24.50;32.00;;;;;;6150643;28;83183;-64
2023/12/05 09:38:07;;;;;;;18.05;12.18;;;24.60;32.00;;;;;;6150881;28;84944;-65
2023/12/05 09:41:10;;;;;;;17.38;10.70;;;24.60;31.90;;;;;;6148786;28;83089;-65
2023/12/05 09:44:11;;;;;;;15.18;10.80;;;24.60;32.00;;;;;;6149540;28;83078;-64
2023/12/05 09:47:11;;;;;;;16.08;10.73;;;24.60;31.90;;;;;;6146828;28;83114;-64
2023/12/05 09:50:12;;;;;;;16.35;10.05;;;24.70;32.10;;;;;;6148124;28;84013;-63
2023/12/05 09:53:12;;;;;;;15.20;10.52;;;24.70;31.90;;;;;;6139851;28;83431;-63
2023/12/05 09:56:13;;;;;;;16.33;10.07;;;24.70;31.90;;;;;;6148598;28;83306;-59
2023/12/05 09:59:13;;;;;;;14.40;9.43;;;24.80;31.90;;;;;;6147006;28;83459;-58
2023/12/05 10:02:15;;;;;;;13.63;8.90;;;24.80;31.90;;;;;;6143459;28;83172;-59
2023/12/05 10:05:16;;;;;;;13.65;9.70;;;24.90;32.00;;;;;;6165000;28;81123;-58
2023/12/05 10:08:16;;;;;;;15.88;10.18;;;24.90;31.90;;;;;;6147640;28;80771;-60
2023/12/05 10:11:17;;;;;;;14.73;10.65;;;24.90;32.00;;;;;;6148017;28;83061;-59
2023/12/05 10:14:17;;;;;;;14.25;10.13;;;24.90;31.90;;;;;;6139933;28;83084;-58
2023/12/05 10:17:20;;;;;;;16.20;11.43;;;24.90;31.90;;;;;;6149378;28;83486;-58
2023/12/05 10:20:21;;;;;;;17.35;11.20;;;24.90;32.10;;;;;;6172723;28;87774;-60
2023/12/05 10:23:22;;;;;;;15.52;11.27;;;25.00;32.10;;;;;;6173108;28;83084;-61
2023/12/05 10:26:22;;;;;;;17.45;11.13;;;25.00;32.00;;;;;;6166785;28;83645;-60
2023/12/05 10:29:23;;;;;;;16.42;11.48;;;25.10;32.00;;;;;;6157768;28;84551;-58
2023/12/05 10:32:23;;;;;;;15.90;10.60;;;25.10;31.70;;;;;;6171715;28;83193;-64
2023/12/05 10:35:24;;;;;;;17.02;11.05;;;25.20;31.60;;;;;;6172599;28;83759;-63
2023/12/05 10:38:24;;;;;;;15.68;10.52;;;25.30;31.70;;;;;;6169293;28;83489;-64
2023/12/05 10:41:25;;;;;;;16.58;10.77;;;25.30;31.60;;;;;;6168482;28;83135;-64
2023/12/05 10:44:25;;;;;;;14.63;9.10;;;25.30;31.60;;;;;;6165796;28;83188;-64
2023/12/05 10:47:26;;;;;;;15.00;9.32;;;25.40;31.60;;;;;;6175588;28;83029;-63
2023/12/05 10:50:27;;;;;;;11.23;9.02;;;25.50;31.60;;;;;;6175913;28;80704;-58
2023/12/05 10:53:27;;;;;;;13.73;9.55;;;25.50;31.50;;;;;;6176359;28;80996;-59
2023/12/05 10:56:28;;;;;;;12.18;8.73;;;25.50;32.30;;;;;;6176648;28;80842;-59
2023/12/05 10:59:28;;;;;;;12.93;8.75;;;25.50;31.40;;;;;;6160570;28;80808;-59
2023/12/05 11:02:29;;;;;;;11.55;8.20;;;25.50;31.40;;;;;;6166692;28;82834;-58
2023/12/05 11:05:29;;;;;;;12.85;9.00;;;25.50;31.40;;;;;;6173265;28;81145;-58
2023/12/05 11:08:30;;;;;;;13.98;9.05;;;25.50;31.30;;;;;;6171578;28;80591;-59
2023/12/05 11:11:30;;;;;;;11.55;8.13;;;25.60;31.20;;;;;;6175329;28;81047;-61
2023/12/05 11:14:31;;;;;;;10.85;7.95;;;25.60;31.20;;;;;;6162844;28;80576;-60
2023/12/05 11:17:31;;;;;;;11.98;8.10;;;25.60;31.10;;;;;;6175792;28;80841;-60
2023/12/05 11:20:32;;;;;;;10.25;7.40;;;25.60;31.90;;;;;;6175843;28;80841;-61
2023/12/05 11:23:32;;;;;;;10.88;7.45;;;25.60;31.20;;;;;;6166198;28;80984;-60
2023/12/05 11:26:34;;;;;;;13.48;8.93;;;25.70;31.20;;;;;;6170833;28;81726;-60
2023/12/05 11:29:34;;;;;;;15.90;9.15;;;25.70;31.10;;;;;;6167806;28;80847;-59
2023/12/05 11:32:34;;;;;;;13.25;8.82;;;25.70;31.20;;;;;;6167190;28;81237;-60
2023/12/05 11:35:35;;;;;;;13.85;9.65;;;25.70;31.20;;;;;;6174791;28;80689;-59
2023/12/05 11:38:35;;;;;;;14.38;9.98;;;25.70;31.10;;;;;;6175542;28;80312;-60
2023/12/05 11:41:36;;;;;;;15.93;10.27;;;25.60;31.00;;;;;;6169189;28;83640;-59
2023/12/05 11:44:37;;;;;;;15.68;11.00;;;25.40;30.90;;;;;;6167850;28;83322;-60
2023/12/05 11:47:38;;;;;;;16.50;10.52;;;25.20;31.80;;;;;;6171608;28;83490;-59
2023/12/05 11:50:38;;;;;;;17.05;10.80;;;25.10;31.30;;;;;;6173071;28;83120;-58
2023/12/05 11:53:39;;;;;;;14.80;10.00;;;24.90;31.50;;;;;;6171493;28;83037;-59
2023/12/05 11:56:41;;;;;;;16.35;10.18;;;24.90;31.50;;;;;;6170003;28;83366;-59
2023/12/05 11:59:42;;;;;;;19.77;12.10;;;24.90;31.40;;;;;;6175398;28;82621;-60
2023/12/05 12:02:43;;;;;;;21.80;12.50;;;24.90;31.30;;;;;;6164730;28;84903;-59
2023/12/05 12:05:44;;;;;;;20.20;12.43;;;24.90;31.30;;;;;;6173679;28;84885;-64
2023/12/05 12:08:48;;;;;;;21.20;11.88;;;25.00;31.10;;;;;;6175352;28;84148;-65
2023/12/05 12:11:49;;;;;;;22.20;12.43;;;24.90;31.10;;;;;;6169473;28;84570;-64
2023/12/05 12:14:49;;;;;;;16.55;11.75;;;24.90;31.20;;;;;;6175757;28;84091;-64
2023/12/05 12:17:50;;;;;;;19.88;12.50;;;24.80;31.20;;;;;;6174657;28;86723;-64
2023/12/05 12:20:51;;;;;;;21.08;12.77;;;24.90;31.20;;;;;;6175963;28;83068;-64
2023/12/05 12:23:51;;;;;;;17.73;11.10;;;25.00;31.00;;;;;;6176185;28;83254;-62
2023/12/05 12:26:53;;;;;;;17.45;12.18;;;25.20;30.90;;;;;;6171247;28;83127;-58
2023/12/05 12:29:53;;;;;;;17.95;12.57;;;25.30;30.70;;;;;;6170805;28;83165;-61
2023/12/05 12:32:55;;;;;;;16.13;11.57;;;25.50;30.60;;;;;;6169387;28;85461;-60
2023/12/05 12:35:56;;;;;;;16.75;11.70;;;25.50;30.90;;;;;;6174140;28;82670;-60
2023/12/05 12:38:56;;;;;;;20.90;12.52;;;25.70;30.10;;;;;;6175243;28;83699;-60
2023/12/05 12:41:58;;;;;;;20.42;13.25;;;25.70;30.30;;;;;;6169382;28;83261;-60
2023/12/05 12:44:58;;;;;;;19.65;12.88;;;25.70;30.20;;;;;;6174731;28;84579;-59
2023/12/05 12:48:00;;;;;;;20.15;12.88;;;25.70;30.10;;;;;;6174310;28;83242;-59
2023/12/05 12:51:00;;;;;;;19.55;13.52;;;25.70;30.10;;;;;;6174499;28;83619;-58
2023/12/05 12:54:05;;;;;;;23.83;14.95;;;25.80;30.10;;;;;;6174717;28;83036;-59
2023/12/05 12:57:05;;;;;;;21.60;13.75;;;25.80;30.00;;;;;;6174174;28;83615;-60
2023/12/05 13:00:06;;;;;;;19.55;12.93;;;25.80;30.00;;;;;;6174558;28;83047;-64
2023/12/05 13:03:06;;;;;;;19.52;12.00;;;25.80;30.10;;;;;;6174108;28;83140;-64
2023/12/05 13:06:07;;;;;;;19.35;12.82;;;25.80;30.00;;;;;;6169991;28;83435;-63
2023/12/05 13:09:07;;;;;;;16.33;10.85;;;25.80;30.90;;;;;;6171244;28;83306;-66
2023/12/05 13:12:08;;;;;;;19.38;12.65;;;25.70;30.10;;;;;;6173265;28;83538;-66
2023/12/05 13:15:09;;;;;;;18.83;12.40;;;25.70;30.10;;;;;;6172616;28;83285;-65
2023/12/05 13:18:09;;;;;;;19.98;12.55;;;25.70;30.10;;;;;;6173342;28;83292;-59
2023/12/05 13:21:10;;;;;;;19.10;12.85;;;25.50;30.00;;;;;;6173612;28;83779;-59
2023/12/05 13:24:10;;;;;;;17.25;12.20;;;25.40;30.20;;;;;;6169892;28;87125;-59
2023/12/05 13:27:11;;;;;;;18.67;12.45;;;25.30;30.40;;;;;;6173804;28;83291;-59
2023/12/05 13:30:14;;;;;;;14.88;10.05;;;25.20;30.40;;;;;;6166713;28;84956;-59
2023/12/05 13:33:15;;;;;;;15.10;10.82;;;25.00;30.70;;;;;;6170632;28;83018;-58
2023/12/05 13:36:16;;;;;;;16.30;11.43;;;24.80;30.60;;;;;;6173136;28;83440;-61
2023/12/05 13:39:16;;;;;;;18.30;12.15;;;24.70;30.70;;;;;;6168179;28;82956;-63
2023/12/05 13:42:17;;;;;;;18.92;12.32;;;24.60;30.70;;;;;;6173206;28;83224;-61
2023/12/05 13:45:17;;;;;;;17.88;11.88;;;24.40;30.80;;;;;;6173930;28;83278;-61
2023/12/05 13:48:18;;;;;;;18.85;12.88;;;24.30;30.80;;;;;;6174629;28;83606;-61
2023/12/05 13:51:18;;;;;;;18.10;11.70;;;24.20;30.80;;;;;;6172935;28;82884;-60
2023/12/05 13:54:19;;;;;;;18.35;12.15;;;24.10;30.80;;;;;;6173605;28;82968;-62
2023/12/05 13:57:20;;;;;;;19.85;13.23;;;24.00;30.90;;;;;;6174394;28;83287;-61
2023/12/05 14:00:20;;;;;;;17.98;13.45;;;23.90;31.00;;;;;;6165268;28;88735;-60
2023/12/05 14:03:21;;;;;;;23.05;14.20;;;23.90;31.30;;;;;;6136958;28;84178;-62
2023/12/05 14:06:21;;;;;;;21.38;14.32;;;23.90;31.60;;;;;;6149825;28;83598;-61
2023/12/05 14:09:22;;;;;;;20.40;13.18;;;23.80;31.70;;;;;;6145660;28;83932;-61
2023/12/05 14:12:22;;;;;;;22.02;13.48;;;23.80;31.90;;;;;;6147969;28;86379;-62
2023/12/05 14:15:24;;;;;;;19.90;13.77;;;23.70;31.80;;;;;;6148290;28;85911;-59
2023/12/05 14:18:25;;;;;;;20.33;13.57;;;23.70;31.80;;;;;;6143470;28;83623;-61
2023/12/05 14:21:25;;;;;;;20.63;13.18;;;23.70;31.60;;;;;;6130720;28;90383;-61
2023/12/05 14:24:26;;;;;;;17.50;12.27;;;23.70;31.60;;;;;;6122608;28;85223;-60
2023/12/05 14:27:26;;;;;;;18.45;12.93;;;23.70;31.80;;;;;;6132066;28;87011;-61
2023/12/05 14:30:27;;;;;;;19.95;12.80;;;23.80;32.00;;;;;;6135961;28;83263;-61
2023/12/05 14:33:27;;;;;;;21.85;13.18;;;23.80;32.10;;;;;;6146882;28;83524;-64
2023/12/05 14:36:28;;;;;;;20.02;13.02;;;23.80;32.10;;;;;;6137663;28;84600;-64
2023/12/05 14:39:30;;;;;;;17.77;12.50;;;23.80;32.10;;;;;;6141815;28;83116;-65
2023/12/05 14:42:30;;;;;;;21.98;13.80;;;23.80;32.10;;;;;;6148433;28;83334;-64
2023/12/05 14:45:31;;;;;;;17.95;12.77;;;23.80;32.10;;;;;;6140939;28;86595;-61
2023/12/05 14:48:31;;;;;;;18.05;11.60;;;23.80;32.10;;;;;;6137685;28;83482;-66
2023/12/05 14:51:32;;;;;;;19.92;12.82;;;23.80;32.60;;;;;;6136832;28;82943;-64
2023/12/05 14:54:32;;;;;;;21.50;13.25;;;23.80;33.10;;;;;;6140720;28;83928;-64
2023/12/05 14:57:33;;;;;;;20.23;12.38;;;23.80;32.80;;;;;;6139030;28;83038;-60
2023/12/05 15:00:33;;;;;;;22.85;12.40;;;23.80;32.90;;;;;;6138298;28;84128;-60
2023/12/05 15:03:34;;;;;;;20.40;12.48;;;23.80;32.90;;;;;;6140046;28;83545;-61
2023/12/05 15:06:34;;;;;;;21.00;13.52;;;23.80;33.10;;;;;;6147924;28;83418;-61
2023/12/05 15:09:35;;;;;;;22.88;13.85;;;23.80;32.90;;;;;;6143145;28;83302;-61
2023/12/05 15:12:36;;;;;;;23.45;14.48;;;23.80;33.00;;;;;;6147061;28;83810;-63
2023/12/05 15:15:36;;;;;;;22.92;14.10;;;23.70;32.80;;;;;;6147791;28;83246;-60